sensor_id;sensor_type;location;lat;lon;timestamp;P1;durP1;ratioP1;P2;durP2;ratioP2
76953;SDS011;65893;51.698;-0.292;2023-04-25T00:02:44;11.82;;;2.92;;
76953;SDS011;65893;51.698;-0.292;2023-04-25T00:05:11;16.38;;;3.15;;
76953;SDS011;65893;51.698;-0.292;2023-04-25T00:07:40;15.70;;;3.35;;
76953;SDS011;65893;51.698;-0.292;2023-04-25T00:10:13;11.98;;;2.60;;
76953;SDS011;65893;51.698;-0.292;2023-04-25T00:12:40;13.13;;;2.55;;
76953;SDS011;65893;51.698;-0.292;2023-04-25T00:15:06;21.48;;;3.15;;
76953;SDS011;65893;51.698;-0.292;2023-04-25T00:17:33;13.15;;;2.42;;
76953;SDS011;65893;51.698;-0.292;2023-04-25T00:20:00;16.50;;;2.30;;
76953;SDS011;65893;51.698;-0.292;2023-04-25T00:22:32;6.57;;;1.90;;
76953;SDS011;65893;51.698;-0.292;2023-04-25T00:25:03;4.03;;;0.80;;
76953;SDS011;65893;51.698;-0.292;2023-04-25T00:27:31;8.32;;;2.63;;
76953;SDS011;65893;51.698;-0.292;2023-04-25T00:29:58;12.13;;;2.53;;
76953;SDS011;65893;51.698;-0.292;2023-04-25T00:32:25;7.10;;;2.38;;
76953;SDS011;65893;51.698;-0.292;2023-04-25T00:34:51;11.85;;;3.17;;
76953;SDS011;65893;51.698;-0.292;2023-04-25T00:37:17;11.20;;;2.80;;
76953;SDS011;65893;51.698;-0.292;2023-04-25T00:39:43;8.30;;;2.40;;
76953;SDS011;65893;51.698;-0.292;2023-04-25T00:42:10;6.70;;;1.83;;
76953;SDS011;65893;51.698;-0.292;2023-04-25T00:44:37;11.25;;;2.92;;
76953;SDS011;65893;51.698;-0.292;2023-04-25T00:47:03;10.30;;;2.83;;
76953;SDS011;65893;51.698;-0.292;2023-04-25T00:49:30;7.72;;;2.38;;
76953;SDS011;65893;51.698;-0.292;2023-04-25T00:51:58;9.60;;;2.47;;
76953;SDS011;65893;51.698;-0.292;2023-04-25T00:54:25;7.03;;;2.55;;
76953;SDS011;65893;51.698;-0.292;2023-04-25T00:56:52;11.32;;;3.17;;
76953;SDS011;65893;51.698;-0.292;2023-04-25T00:59:19;5.18;;;1.75;;
76953;SDS011;65893;51.698;-0.292;2023-04-25T01:01:45;5.82;;;2.03;;
76953;SDS011;65893;51.698;-0.292;2023-04-25T01:04:12;7.38;;;1.90;;
76953;SDS011;65893;51.698;-0.292;2023-04-25T01:06:40;5.28;;;1.67;;
76953;SDS011;65893;51.698;-0.292;2023-04-25T01:11:34;6.63;;;2.50;;
76953;SDS011;65893;51.698;-0.292;2023-04-25T01:14:01;12.98;;;2.28;;
76953;SDS011;65893;51.698;-0.292;2023-04-25T01:16:28;2.60;;;0.98;;
76953;SDS011;65893;51.698;-0.292;2023-04-25T01:18:55;8.48;;;1.48;;
76953;SDS011;65893;51.698;-0.292;2023-04-25T01:21:21;12.93;;;2.00;;
76953;SDS011;65893;51.698;-0.292;2023-04-25T01:23:48;1.15;;;0.60;;
76953;SDS011;65893;51.698;-0.292;2023-04-25T01:26:17;4.90;;;1.35;;
76953;SDS011;65893;51.698;-0.292;2023-04-25T01:28:49;1.38;;;0.55;;
76953;SDS011;65893;51.698;-0.292;2023-04-25T01:31:21;4.97;;;1.20;;
76953;SDS011;65893;51.698;-0.292;2023-04-25T01:33:50;6.32;;;1.88;;
76953;SDS011;65893;51.698;-0.292;2023-04-25T01:36:18;5.82;;;1.85;;
76953;SDS011;65893;51.698;-0.292;2023-04-25T01:38:46;6.57;;;1.63;;
76953;SDS011;65893;51.698;-0.292;2023-04-25T01:41:12;9.07;;;1.83;;
76953;SDS011;65893;51.698;-0.292;2023-04-25T01:43:39;16.17;;;1.63;;
76953;SDS011;65893;51.698;-0.292;2023-04-25T01:46:05;5.07;;;1.90;;
76953;SDS011;65893;51.698;-0.292;2023-04-25T01:48:32;10.30;;;2.10;;
76953;SDS011;65893;51.698;-0.292;2023-04-25T01:50:58;10.07;;;2.63;;
76953;SDS011;65893;51.698;-0.292;2023-04-25T01:53:24;12.70;;;2.20;;
76953;SDS011;65893;51.698;-0.292;2023-04-25T01:55:52;3.33;;;1.42;;
76953;SDS011;65893;51.698;-0.292;2023-04-25T01:58:18;8.02;;;1.85;;
76953;SDS011;65893;51.698;-0.292;2023-04-25T02:00:44;7.82;;;2.38;;
76953;SDS011;65893;51.698;-0.292;2023-04-25T02:03:11;10.93;;;2.92;;
76953;SDS011;65893;51.698;-0.292;2023-04-25T02:05:39;11.30;;;2.03;;
76953;SDS011;65893;51.698;-0.292;2023-04-25T02:08:08;12.02;;;1.83;;
76953;SDS011;65893;51.698;-0.292;2023-04-25T02:10:35;10.90;;;3.03;;
76953;SDS011;65893;51.698;-0.292;2023-04-25T02:13:05;6.72;;;2.13;;
76953;SDS011;65893;51.698;-0.292;2023-04-25T02:15:31;7.78;;;2.28;;
76953;SDS011;65893;51.698;-0.292;2023-04-25T02:17:57;10.55;;;1.98;;
76953;SDS011;65893;51.698;-0.292;2023-04-25T02:20:29;13.40;;;2.88;;
76953;SDS011;65893;51.698;-0.292;2023-04-25T02:23:04;4.78;;;1.27;;
76953;SDS011;65893;51.698;-0.292;2023-04-25T02:25:37;9.60;;;1.83;;
76953;SDS011;65893;51.698;-0.292;2023-04-25T02:28:04;7.60;;;1.65;;
76953;SDS011;65893;51.698;-0.292;2023-04-25T02:30:31;4.40;;;1.08;;
76953;SDS011;65893;51.698;-0.292;2023-04-25T02:33:00;11.43;;;2.65;;
76953;SDS011;65893;51.698;-0.292;2023-04-25T02:35:26;13.63;;;2.13;;
76953;SDS011;65893;51.698;-0.292;2023-04-25T02:37:52;8.18;;;1.88;;
76953;SDS011;65893;51.698;-0.292;2023-04-25T02:40:23;6.03;;;1.73;;
76953;SDS011;65893;51.698;-0.292;2023-04-25T02:42:51;12.13;;;2.03;;
76953;SDS011;65893;51.698;-0.292;2023-04-25T02:45:24;9.18;;;1.92;;
76953;SDS011;65893;51.698;-0.292;2023-04-25T02:47:50;8.27;;;2.33;;
76953;SDS011;65893;51.698;-0.292;2023-04-25T02:50:18;8.82;;;1.90;;
76953;SDS011;65893;51.698;-0.292;2023-04-25T02:52:45;7.65;;;2.00;;
76953;SDS011;65893;51.698;-0.292;2023-04-25T02:55:13;9.48;;;2.58;;
76953;SDS011;65893;51.698;-0.292;2023-04-25T02:57:42;4.80;;;1.52;;
76953;SDS011;65893;51.698;-0.292;2023-04-25T03:00:16;4.72;;;1.83;;
76953;SDS011;65893;51.698;-0.292;2023-04-25T03:02:44;8.38;;;2.13;;
76953;SDS011;65893;51.698;-0.292;2023-04-25T03:07:45;10.75;;;2.30;;
76953;SDS011;65893;51.698;-0.292;2023-04-25T03:10:12;11.27;;;2.10;;
76953;SDS011;65893;51.698;-0.292;2023-04-25T03:12:43;9.23;;;2.17;;
76953;SDS011;65893;51.698;-0.292;2023-04-25T03:15:13;8.77;;;2.63;;
76953;SDS011;65893;51.698;-0.292;2023-04-25T03:17:47;10.48;;;2.17;;
76953;SDS011;65893;51.698;-0.292;2023-04-25T03:20:16;10.85;;;2.03;;
76953;SDS011;65893;51.698;-0.292;2023-04-25T03:22:43;9.93;;;1.95;;
76953;SDS011;65893;51.698;-0.292;2023-04-25T03:25:12;8.77;;;2.70;;
76953;SDS011;65893;51.698;-0.292;2023-04-25T03:27:44;5.20;;;1.38;;
76953;SDS011;65893;51.698;-0.292;2023-04-25T03:30:10;8.52;;;2.20;;
76953;SDS011;65893;51.698;-0.292;2023-04-25T03:32:36;6.95;;;1.83;;
76953;SDS011;65893;51.698;-0.292;2023-04-25T03:35:05;9.57;;;2.03;;
76953;SDS011;65893;51.698;-0.292;2023-04-25T03:37:31;1.77;;;0.90;;
76953;SDS011;65893;51.698;-0.292;2023-04-25T03:42:28;6.82;;;2.15;;
76953;SDS011;65893;51.698;-0.292;2023-04-25T03:44:54;13.13;;;2.60;;
76953;SDS011;65893;51.698;-0.292;2023-04-25T03:47:24;4.32;;;1.77;;
76953;SDS011;65893;51.698;-0.292;2023-04-25T03:49:50;12.35;;;2.30;;
76953;SDS011;65893;51.698;-0.292;2023-04-25T03:52:22;17.67;;;3.15;;
76953;SDS011;65893;51.698;-0.292;2023-04-25T03:54:56;9.13;;;2.95;;
76953;SDS011;65893;51.698;-0.292;2023-04-25T03:59:51;7.18;;;2.58;;
76953;SDS011;65893;51.698;-0.292;2023-04-25T04:02:17;24.20;;;2.67;;
76953;SDS011;65893;51.698;-0.292;2023-04-25T04:04:45;15.40;;;2.50;;
76953;SDS011;65893;51.698;-0.292;2023-04-25T04:07:12;9.52;;;2.65;;
76953;SDS011;65893;51.698;-0.292;2023-04-25T04:09:39;7.28;;;1.48;;
76953;SDS011;65893;51.698;-0.292;2023-04-25T04:12:05;13.25;;;2.85;;
76953;SDS011;65893;51.698;-0.292;2023-04-25T04:14:32;9.70;;;1.85;;
76953;SDS011;65893;51.698;-0.292;2023-04-25T04:16:59;6.65;;;1.65;;
76953;SDS011;65893;51.698;-0.292;2023-04-25T04:19:25;10.40;;;2.30;;
76953;SDS011;65893;51.698;-0.292;2023-04-25T04:21:53;6.95;;;1.85;;
76953;SDS011;65893;51.698;-0.292;2023-04-25T04:24:19;10.73;;;2.83;;
76953;SDS011;65893;51.698;-0.292;2023-04-25T04:26:48;10.85;;;2.83;;
76953;SDS011;65893;51.698;-0.292;2023-04-25T04:29:17;20.88;;;2.65;;
76953;SDS011;65893;51.698;-0.292;2023-04-25T04:31:50;13.95;;;2.55;;
76953;SDS011;65893;51.698;-0.292;2023-04-25T04:34:37;11.55;;;2.60;;
76953;SDS011;65893;51.698;-0.292;2023-04-25T04:37:04;12.20;;;2.83;;
76953;SDS011;65893;51.698;-0.292;2023-04-25T04:39:42;13.77;;;2.58;;
76953;SDS011;65893;51.698;-0.292;2023-04-25T04:42:09;13.93;;;2.65;;
76953;SDS011;65893;51.698;-0.292;2023-04-25T04:44:39;7.78;;;2.08;;
76953;SDS011;65893;51.698;-0.292;2023-04-25T04:47:11;9.80;;;2.53;;
76953;SDS011;65893;51.698;-0.292;2023-04-25T04:49:49;13.85;;;2.53;;
76953;SDS011;65893;51.698;-0.292;2023-04-25T04:52:15;11.30;;;2.47;;
76953;SDS011;65893;51.698;-0.292;2023-04-25T04:54:44;7.30;;;2.08;;
76953;SDS011;65893;51.698;-0.292;2023-04-25T04:57:12;10.60;;;2.05;;
76953;SDS011;65893;51.698;-0.292;2023-04-25T04:59:52;7.20;;;1.90;;
76953;SDS011;65893;51.698;-0.292;2023-04-25T05:02:19;12.05;;;2.80;;
76953;SDS011;65893;51.698;-0.292;2023-04-25T05:04:51;10.82;;;2.22;;
76953;SDS011;65893;51.698;-0.292;2023-04-25T05:07:18;9.73;;;2.40;;
76953;SDS011;65893;51.698;-0.292;2023-04-25T05:09:54;15.25;;;2.53;;
76953;SDS011;65893;51.698;-0.292;2023-04-25T05:12:20;8.68;;;2.55;;
76953;SDS011;65893;51.698;-0.292;2023-04-25T05:14:48;12.95;;;2.20;;
76953;SDS011;65893;51.698;-0.292;2023-04-25T05:17:17;11.00;;;1.92;;
76953;SDS011;65893;51.698;-0.292;2023-04-25T05:19:43;7.20;;;1.95;;
76953;SDS011;65893;51.698;-0.292;2023-04-25T05:22:10;8.90;;;1.98;;
76953;SDS011;65893;51.698;-0.292;2023-04-25T05:24:36;8.23;;;2.28;;
76953;SDS011;65893;51.698;-0.292;2023-04-25T05:27:02;11.88;;;2.28;;
76953;SDS011;65893;51.698;-0.292;2023-04-25T05:29:28;10.35;;;3.25;;
76953;SDS011;65893;51.698;-0.292;2023-04-25T05:31:56;10.88;;;2.40;;
76953;SDS011;65893;51.698;-0.292;2023-04-25T05:34:23;9.00;;;3.33;;
76953;SDS011;65893;51.698;-0.292;2023-04-25T05:36:49;9.05;;;2.70;;
76953;SDS011;65893;51.698;-0.292;2023-04-25T05:39:16;12.35;;;2.88;;
76953;SDS011;65893;51.698;-0.292;2023-04-25T05:41:44;7.10;;;2.22;;
76953;SDS011;65893;51.698;-0.292;2023-04-25T05:44:11;10.60;;;2.08;;
76953;SDS011;65893;51.698;-0.292;2023-04-25T05:46:45;8.07;;;1.63;;
76953;SDS011;65893;51.698;-0.292;2023-04-25T05:49:12;6.88;;;1.80;;
76953;SDS011;65893;51.698;-0.292;2023-04-25T05:51:38;6.00;;;2.97;;
76953;SDS011;65893;51.698;-0.292;2023-04-25T05:54:10;14.60;;;2.97;;
76953;SDS011;65893;51.698;-0.292;2023-04-25T05:56:39;12.23;;;2.42;;
76953;SDS011;65893;51.698;-0.292;2023-04-25T05:59:06;9.68;;;2.08;;
76953;SDS011;65893;51.698;-0.292;2023-04-25T06:01:36;13.52;;;2.22;;
76953;SDS011;65893;51.698;-0.292;2023-04-25T06:04:06;9.10;;;2.42;;
76953;SDS011;65893;51.698;-0.292;2023-04-25T06:06:33;9.43;;;2.47;;
76953;SDS011;65893;51.698;-0.292;2023-04-25T06:09:00;11.80;;;2.58;;
76953;SDS011;65893;51.698;-0.292;2023-04-25T06:11:27;6.35;;;2.13;;
76953;SDS011;65893;51.698;-0.292;2023-04-25T06:13:54;8.57;;;2.33;;
76953;SDS011;65893;51.698;-0.292;2023-04-25T06:16:25;3.65;;;1.20;;
76953;SDS011;65893;51.698;-0.292;2023-04-25T06:18:53;3.38;;;0.77;;
76953;SDS011;65893;51.698;-0.292;2023-04-25T06:21:21;7.78;;;2.10;;
76953;SDS011;65893;51.698;-0.292;2023-04-25T06:23:49;8.73;;;2.03;;
76953;SDS011;65893;51.698;-0.292;2023-04-25T06:26:17;4.30;;;0.70;;
76953;SDS011;65893;51.698;-0.292;2023-04-25T06:28:43;1.27;;;0.63;;
76953;SDS011;65893;51.698;-0.292;2023-04-25T06:31:09;7.18;;;1.48;;
76953;SDS011;65893;51.698;-0.292;2023-04-25T06:33:35;9.38;;;2.15;;
76953;SDS011;65893;51.698;-0.292;2023-04-25T06:36:01;7.07;;;2.25;;
76953;SDS011;65893;51.698;-0.292;2023-04-25T06:38:27;11.32;;;2.40;;
76953;SDS011;65893;51.698;-0.292;2023-04-25T06:40:59;11.35;;;2.30;;
76953;SDS011;65893;51.698;-0.292;2023-04-25T06:43:32;8.10;;;1.70;;
76953;SDS011;65893;51.698;-0.292;2023-04-25T06:46:01;1.77;;;0.40;;
76953;SDS011;65893;51.698;-0.292;2023-04-25T06:48:27;8.00;;;1.33;;
76953;SDS011;65893;51.698;-0.292;2023-04-25T06:50:53;19.45;;;2.75;;
76953;SDS011;65893;51.698;-0.292;2023-04-25T06:53:19;5.15;;;1.35;;
76953;SDS011;65893;51.698;-0.292;2023-04-25T06:55:47;10.68;;;2.47;;
76953;SDS011;65893;51.698;-0.292;2023-04-25T06:58:15;10.05;;;1.88;;
76953;SDS011;65893;51.698;-0.292;2023-04-25T07:00:44;7.22;;;1.52;;
76953;SDS011;65893;51.698;-0.292;2023-04-25T07:03:12;12.52;;;1.70;;
76953;SDS011;65893;51.698;-0.292;2023-04-25T07:05:39;6.25;;;1.42;;
76953;SDS011;65893;51.698;-0.292;2023-04-25T07:08:05;1.63;;;0.68;;
76953;SDS011;65893;51.698;-0.292;2023-04-25T07:10:31;10.40;;;2.05;;
76953;SDS011;65893;51.698;-0.292;2023-04-25T07:12:59;5.30;;;1.27;;
76953;SDS011;65893;51.698;-0.292;2023-04-25T07:15:26;1.52;;;0.60;;
76953;SDS011;65893;51.698;-0.292;2023-04-25T07:17:56;11.82;;;2.40;;
76953;SDS011;65893;51.698;-0.292;2023-04-25T07:20:23;2.55;;;0.93;;
76953;SDS011;65893;51.698;-0.292;2023-04-25T07:22:49;5.43;;;0.85;;
76953;SDS011;65893;51.698;-0.292;2023-04-25T07:25:16;10.38;;;2.28;;
76953;SDS011;65893;51.698;-0.292;2023-04-25T07:27:45;6.28;;;1.63;;
76953;SDS011;65893;51.698;-0.292;2023-04-25T07:30:11;6.00;;;1.50;;
76953;SDS011;65893;51.698;-0.292;2023-04-25T07:32:38;3.88;;;1.08;;
76953;SDS011;65893;51.698;-0.292;2023-04-25T07:35:04;3.25;;;0.75;;
76953;SDS011;65893;51.698;-0.292;2023-04-25T07:37:32;5.15;;;1.63;;
76953;SDS011;65893;51.698;-0.292;2023-04-25T07:39:58;7.18;;;1.50;;
76953;SDS011;65893;51.698;-0.292;2023-04-25T07:42:24;4.18;;;1.38;;
76953;SDS011;65893;51.698;-0.292;2023-04-25T07:44:50;4.55;;;1.15;;
76953;SDS011;65893;51.698;-0.292;2023-04-25T07:47:16;7.28;;;1.58;;
76953;SDS011;65893;51.698;-0.292;2023-04-25T07:49:47;2.28;;;0.75;;
76953;SDS011;65893;51.698;-0.292;2023-04-25T07:52:13;8.23;;;0.95;;
76953;SDS011;65893;51.698;-0.292;2023-04-25T07:54:41;3.30;;;1.13;;
76953;SDS011;65893;51.698;-0.292;2023-04-25T07:57:08;1.55;;;0.45;;
76953;SDS011;65893;51.698;-0.292;2023-04-25T07:59:37;3.42;;;1.23;;
76953;SDS011;65893;51.698;-0.292;2023-04-25T08:02:03;9.05;;;1.83;;
76953;SDS011;65893;51.698;-0.292;2023-04-25T08:04:29;4.78;;;1.55;;
76953;SDS011;65893;51.698;-0.292;2023-04-25T08:06:55;5.93;;;1.23;;
76953;SDS011;65893;51.698;-0.292;2023-04-25T08:09:23;7.30;;;1.08;;
76953;SDS011;65893;51.698;-0.292;2023-04-25T08:11:50;5.65;;;1.30;;
76953;SDS011;65893;51.698;-0.292;2023-04-25T08:14:16;3.63;;;0.90;;
76953;SDS011;65893;51.698;-0.292;2023-04-25T08:16:42;5.13;;;1.27;;
76953;SDS011;65893;51.698;-0.292;2023-04-25T08:19:09;3.75;;;1.45;;
76953;SDS011;65893;51.698;-0.292;2023-04-25T08:21:35;3.63;;;0.95;;
76953;SDS011;65893;51.698;-0.292;2023-04-25T08:26:34;5.57;;;1.35;;
76953;SDS011;65893;51.698;-0.292;2023-04-25T08:29:02;3.17;;;0.90;;
76953;SDS011;65893;51.698;-0.292;2023-04-25T08:31:30;3.88;;;0.90;;
76953;SDS011;65893;51.698;-0.292;2023-04-25T08:33:57;4.78;;;1.10;;
76953;SDS011;65893;51.698;-0.292;2023-04-25T08:36:23;6.45;;;1.35;;
76953;SDS011;65893;51.698;-0.292;2023-04-25T08:38:51;1.33;;;0.60;;
76953;SDS011;65893;51.698;-0.292;2023-04-25T08:41:19;5.57;;;1.25;;
76953;SDS011;65893;51.698;-0.292;2023-04-25T08:43:47;9.52;;;1.75;;
76953;SDS011;65893;51.698;-0.292;2023-04-25T08:46:16;4.50;;;1.67;;
76953;SDS011;65893;51.698;-0.292;2023-04-25T08:48:43;6.28;;;1.40;;
76953;SDS011;65893;51.698;-0.292;2023-04-25T08:51:23;2.42;;;0.57;;
76953;SDS011;65893;51.698;-0.292;2023-04-25T08:53:55;2.08;;;0.57;;
76953;SDS011;65893;51.698;-0.292;2023-04-25T08:56:44;5.88;;;1.17;;
76953;SDS011;65893;51.698;-0.292;2023-04-25T08:59:19;2.15;;;0.70;;
76953;SDS011;65893;51.698;-0.292;2023-04-25T09:01:53;2.65;;;0.68;;
76953;SDS011;65893;51.698;-0.292;2023-04-25T09:04:33;3.90;;;0.68;;
76953;SDS011;65893;51.698;-0.292;2023-04-25T09:07:15;2.13;;;0.77;;
76953;SDS011;65893;51.698;-0.292;2023-04-25T09:09:45;4.07;;;0.55;;
76953;SDS011;65893;51.698;-0.292;2023-04-25T09:12:11;1.60;;;0.70;;
76953;SDS011;65893;51.698;-0.292;2023-04-25T09:14:39;10.45;;;1.20;;
76953;SDS011;65893;51.698;-0.292;2023-04-25T09:17:11;5.72;;;1.30;;
76953;SDS011;65893;51.698;-0.292;2023-04-25T09:19:41;6.93;;;1.50;;
76953;SDS011;65893;51.698;-0.292;2023-04-25T09:22:09;3.10;;;0.73;;
76953;SDS011;65893;51.698;-0.292;2023-04-25T09:24:41;4.85;;;1.05;;
76953;SDS011;65893;51.698;-0.292;2023-04-25T09:27:11;7.95;;;1.02;;
76953;SDS011;65893;51.698;-0.292;2023-04-25T09:29:40;1.15;;;0.45;;
76953;SDS011;65893;51.698;-0.292;2023-04-25T09:32:20;3.33;;;0.90;;
76953;SDS011;65893;51.698;-0.292;2023-04-25T09:34:50;3.85;;;0.70;;
76953;SDS011;65893;51.698;-0.292;2023-04-25T09:37:20;4.45;;;1.88;;
76953;SDS011;65893;51.698;-0.292;2023-04-25T09:39:59;2.75;;;0.98;;
76953;SDS011;65893;51.698;-0.292;2023-04-25T09:42:29;9.48;;;1.88;;
76953;SDS011;65893;51.698;-0.292;2023-04-25T09:44:56;2.00;;;0.70;;
76953;SDS011;65893;51.698;-0.292;2023-04-25T09:47:28;7.50;;;1.10;;
76953;SDS011;65893;51.698;-0.292;2023-04-25T09:49:55;3.08;;;0.90;;
76953;SDS011;65893;51.698;-0.292;2023-04-25T09:52:27;2.83;;;0.50;;
76953;SDS011;65893;51.698;-0.292;2023-04-25T09:54:53;2.42;;;0.90;;
76953;SDS011;65893;51.698;-0.292;2023-04-25T09:57:24;4.15;;;1.10;;
76953;SDS011;65893;51.698;-0.292;2023-04-25T09:59:50;7.07;;;1.92;;
76953;SDS011;65893;51.698;-0.292;2023-04-25T10:02:24;0.57;;;0.45;;
76953;SDS011;65893;51.698;-0.292;2023-04-25T10:04:51;2.72;;;0.47;;
76953;SDS011;65893;51.698;-0.292;2023-04-25T10:07:24;4.22;;;0.82;;
76953;SDS011;65893;51.698;-0.292;2023-04-25T10:09:54;2.05;;;0.70;;
76953;SDS011;65893;51.698;-0.292;2023-04-25T10:12:22;2.42;;;0.98;;
76953;SDS011;65893;51.698;-0.292;2023-04-25T10:14:49;4.57;;;1.27;;
76953;SDS011;65893;51.698;-0.292;2023-04-25T10:17:17;6.63;;;0.82;;
76953;SDS011;65893;51.698;-0.292;2023-04-25T10:19:43;6.07;;;1.00;;
76953;SDS011;65893;51.698;-0.292;2023-04-25T10:22:13;3.70;;;1.15;;
76953;SDS011;65893;51.698;-0.292;2023-04-25T10:24:40;2.95;;;1.05;;
76953;SDS011;65893;51.698;-0.292;2023-04-25T10:27:14;5.10;;;0.95;;
76953;SDS011;65893;51.698;-0.292;2023-04-25T10:29:43;3.50;;;0.80;;
76953;SDS011;65893;51.698;-0.292;2023-04-25T10:32:09;2.60;;;1.08;;
76953;SDS011;65893;51.698;-0.292;2023-04-25T10:34:46;2.53;;;0.77;;
76953;SDS011;65893;51.698;-0.292;2023-04-25T10:37:15;4.50;;;1.00;;
76953;SDS011;65893;51.698;-0.292;2023-04-25T10:39:44;2.33;;;0.65;;
76953;SDS011;65893;51.698;-0.292;2023-04-25T10:42:11;5.35;;;1.38;;
76953;SDS011;65893;51.698;-0.292;2023-04-25T10:44:38;6.05;;;1.58;;
76953;SDS011;65893;51.698;-0.292;2023-04-25T10:47:06;3.90;;;1.00;;
76953;SDS011;65893;51.698;-0.292;2023-04-25T10:49:41;6.30;;;1.30;;
76953;SDS011;65893;51.698;-0.292;2023-04-25T10:52:12;5.22;;;1.20;;
76953;SDS011;65893;51.698;-0.292;2023-04-25T10:54:57;2.38;;;0.80;;
76953;SDS011;65893;51.698;-0.292;2023-04-25T10:57:36;6.63;;;1.25;;
76953;SDS011;65893;51.698;-0.292;2023-04-25T11:00:08;2.10;;;1.00;;
76953;SDS011;65893;51.698;-0.292;2023-04-25T11:05:33;1.27;;;0.43;;
76953;SDS011;65893;51.698;-0.292;2023-04-25T11:08:01;4.22;;;0.88;;
76953;SDS011;65893;51.698;-0.292;2023-04-25T11:10:32;5.93;;;1.25;;
76953;SDS011;65893;51.698;-0.292;2023-04-25T11:13:08;4.55;;;0.73;;
76953;SDS011;65893;51.698;-0.292;2023-04-25T11:15:35;3.08;;;0.80;;
76953;SDS011;65893;51.698;-0.292;2023-04-25T11:18:05;5.82;;;1.38;;
76953;SDS011;65893;51.698;-0.292;2023-04-25T11:20:34;1.55;;;0.60;;
76953;SDS011;65893;51.698;-0.292;2023-04-25T11:23:01;2.17;;;1.05;;
76953;SDS011;65893;51.698;-0.292;2023-04-25T11:25:29;3.83;;;0.90;;
76953;SDS011;65893;51.698;-0.292;2023-04-25T11:27:57;3.22;;;1.25;;
76953;SDS011;65893;51.698;-0.292;2023-04-25T11:30:25;2.90;;;0.95;;
76953;SDS011;65893;51.698;-0.292;2023-04-25T11:35:53;2.40;;;0.88;;
76953;SDS011;65893;51.698;-0.292;2023-04-25T11:38:29;5.07;;;1.38;;
76953;SDS011;65893;51.698;-0.292;2023-04-25T11:40:58;2.75;;;0.85;;
76953;SDS011;65893;51.698;-0.292;2023-04-25T11:43:28;3.13;;;0.68;;
76953;SDS011;65893;51.698;-0.292;2023-04-25T11:51:37;2.15;;;0.65;;
76953;SDS011;65893;51.698;-0.292;2023-04-25T11:56:59;4.55;;;1.17;;
76953;SDS011;65893;51.698;-0.292;2023-04-25T11:59:37;4.45;;;1.30;;
76953;SDS011;65893;51.698;-0.292;2023-04-25T12:02:04;1.70;;;0.60;;
76953;SDS011;65893;51.698;-0.292;2023-04-25T12:04:39;3.22;;;1.20;;
76953;SDS011;65893;51.698;-0.292;2023-04-25T12:07:14;2.67;;;0.63;;
76953;SDS011;65893;51.698;-0.292;2023-04-25T12:09:55;2.28;;;0.85;;
76953;SDS011;65893;51.698;-0.292;2023-04-25T12:12:27;1.42;;;0.52;;
76953;SDS011;65893;51.698;-0.292;2023-04-25T12:14:54;2.88;;;1.20;;
76953;SDS011;65893;51.698;-0.292;2023-04-25T12:17:26;4.95;;;1.25;;
76953;SDS011;65893;51.698;-0.292;2023-04-25T12:20:00;4.50;;;2.20;;
76953;SDS011;65893;51.698;-0.292;2023-04-25T12:22:35;3.05;;;1.02;;
76953;SDS011;65893;51.698;-0.292;2023-04-25T12:25:05;2.70;;;0.95;;
76953;SDS011;65893;51.698;-0.292;2023-04-25T12:27:33;2.78;;;1.23;;
76953;SDS011;65893;51.698;-0.292;2023-04-25T12:30:02;8.25;;;1.50;;
76953;SDS011;65893;51.698;-0.292;2023-04-25T12:32:29;4.20;;;1.27;;
76953;SDS011;65893;51.698;-0.292;2023-04-25T12:34:57;5.90;;;1.40;;
76953;SDS011;65893;51.698;-0.292;2023-04-25T12:37:25;1.45;;;0.70;;
76953;SDS011;65893;51.698;-0.292;2023-04-25T12:39:53;6.78;;;1.45;;
76953;SDS011;65893;51.698;-0.292;2023-04-25T12:42:23;5.47;;;1.65;;
76953;SDS011;65893;51.698;-0.292;2023-04-25T12:44:53;4.07;;;1.10;;
76953;SDS011;65893;51.698;-0.292;2023-04-25T12:47:29;3.13;;;0.63;;
76953;SDS011;65893;51.698;-0.292;2023-04-25T12:49:56;2.38;;;0.70;;
76953;SDS011;65893;51.698;-0.292;2023-04-25T12:52:30;6.03;;;1.50;;
76953;SDS011;65893;51.698;-0.292;2023-04-25T12:55:00;4.35;;;1.38;;
76953;SDS011;65893;51.698;-0.292;2023-04-25T12:57:28;1.38;;;0.50;;
76953;SDS011;65893;51.698;-0.292;2023-04-25T12:59:54;6.97;;;1.30;;
76953;SDS011;65893;51.698;-0.292;2023-04-25T13:02:21;3.67;;;1.05;;
76953;SDS011;65893;51.698;-0.292;2023-04-25T13:05:00;2.92;;;0.90;;
76953;SDS011;65893;51.698;-0.292;2023-04-25T13:07:29;2.08;;;0.70;;
76953;SDS011;65893;51.698;-0.292;2023-04-25T13:09:55;6.38;;;1.27;;
76953;SDS011;65893;51.698;-0.292;2023-04-25T13:12:32;5.53;;;0.98;;
76953;SDS011;65893;51.698;-0.292;2023-04-25T13:15:01;6.28;;;1.30;;
76953;SDS011;65893;51.698;-0.292;2023-04-25T13:17:30;2.38;;;0.95;;
76953;SDS011;65893;51.698;-0.292;2023-04-25T13:19:56;6.13;;;1.33;;
76953;SDS011;65893;51.698;-0.292;2023-04-25T13:22:29;7.97;;;1.40;;
76953;SDS011;65893;51.698;-0.292;2023-04-25T13:24:57;5.80;;;1.67;;
76953;SDS011;65893;51.698;-0.292;2023-04-25T13:27:26;5.38;;;1.60;;
76953;SDS011;65893;51.698;-0.292;2023-04-25T13:29:52;5.07;;;1.48;;
76953;SDS011;65893;51.698;-0.292;2023-04-25T13:32:27;6.50;;;1.15;;
76953;SDS011;65893;51.698;-0.292;2023-04-25T13:34:54;3.75;;;1.42;;
76953;SDS011;65893;51.698;-0.292;2023-04-25T13:37:25;3.97;;;1.55;;
76953;SDS011;65893;51.698;-0.292;2023-04-25T13:39:54;5.07;;;1.50;;
76953;SDS011;65893;51.698;-0.292;2023-04-25T13:42:21;6.57;;;1.35;;
76953;SDS011;65893;51.698;-0.292;2023-04-25T13:44:52;4.57;;;1.50;;
76953;SDS011;65893;51.698;-0.292;2023-04-25T13:47:22;3.65;;;1.40;;
76953;SDS011;65893;51.698;-0.292;2023-04-25T13:52:19;3.53;;;0.77;;
76953;SDS011;65893;51.698;-0.292;2023-04-25T13:54:48;8.15;;;1.40;;
76953;SDS011;65893;51.698;-0.292;2023-04-25T13:57:20;9.57;;;1.83;;
76953;SDS011;65893;51.698;-0.292;2023-04-25T13:59:48;5.40;;;1.60;;
76953;SDS011;65893;51.698;-0.292;2023-04-25T14:02:20;8.38;;;1.80;;
76953;SDS011;65893;51.698;-0.292;2023-04-25T14:07:15;5.57;;;1.33;;
76953;SDS011;65893;51.698;-0.292;2023-04-25T14:09:46;6.03;;;1.70;;
76953;SDS011;65893;51.698;-0.292;2023-04-25T14:12:13;8.25;;;1.65;;
76953;SDS011;65893;51.698;-0.292;2023-04-25T14:14:46;9.20;;;1.88;;
76953;SDS011;65893;51.698;-0.292;2023-04-25T14:17:15;4.43;;;1.90;;
76953;SDS011;65893;51.698;-0.292;2023-04-25T14:19:43;4.13;;;1.58;;
76953;SDS011;65893;51.698;-0.292;2023-04-25T14:22:14;5.55;;;1.65;;
76953;SDS011;65893;51.698;-0.292;2023-04-25T14:24:41;4.93;;;2.28;;
76953;SDS011;65893;51.698;-0.292;2023-04-25T14:27:10;6.32;;;1.92;;
76953;SDS011;65893;51.698;-0.292;2023-04-25T14:29:37;7.22;;;2.20;;
76953;SDS011;65893;51.698;-0.292;2023-04-25T14:32:04;6.78;;;1.65;;
76953;SDS011;65893;51.698;-0.292;2023-04-25T14:34:36;8.50;;;2.00;;
76953;SDS011;65893;51.698;-0.292;2023-04-25T14:37:02;6.82;;;1.67;;
76953;SDS011;65893;51.698;-0.292;2023-04-25T14:39:31;3.22;;;1.63;;
76953;SDS011;65893;51.698;-0.292;2023-04-25T14:41:59;5.43;;;1.67;;
76953;SDS011;65893;51.698;-0.292;2023-04-25T14:44:26;8.57;;;1.70;;
76953;SDS011;65893;51.698;-0.292;2023-04-25T14:46:53;6.57;;;2.05;;
76953;SDS011;65893;51.698;-0.292;2023-04-25T14:49:21;6.78;;;1.60;;
76953;SDS011;65893;51.698;-0.292;2023-04-25T14:51:47;4.03;;;1.67;;
76953;SDS011;65893;51.698;-0.292;2023-04-25T14:54:15;6.75;;;1.60;;
76953;SDS011;65893;51.698;-0.292;2023-04-25T14:56:42;4.03;;;1.60;;
76953;SDS011;65893;51.698;-0.292;2023-04-25T14:59:09;6.10;;;1.95;;
76953;SDS011;65893;51.698;-0.292;2023-04-25T15:01:36;4.85;;;1.98;;
76953;SDS011;65893;51.698;-0.292;2023-04-25T15:04:02;6.60;;;1.95;;
76953;SDS011;65893;51.698;-0.292;2023-04-25T15:06:29;5.05;;;1.67;;
76953;SDS011;65893;51.698;-0.292;2023-04-25T15:08:58;5.28;;;1.95;;
76953;SDS011;65893;51.698;-0.292;2023-04-25T15:11:37;8.30;;;1.67;;
76953;SDS011;65893;51.698;-0.292;2023-04-25T15:14:09;5.35;;;1.75;;